Bookmark and Share
Track history (hours):
 

Maersk Durham

Last reported at 2014-Apr-10 11:06 UTC. Time now 2014-Apr-21 12:12 UTC.
Position N 29°55' W 090°06'.
Warning: this ship's position is 11 days out of date.

Length 294.5 m; beam 32.2 m; draft 13.7 m.

Type: Ship (hazmat cat A). MMSI: 211766000.

NotesDate/timePositionNaut miles runAvg speedWind from/ knotsBaromVisibWave heightAir tempDewpointWater temp
2014-Apr-10 11:06N 29°55' W 090°06'248 5.6
2014-Apr-08 14:33N 29°26' W 094°50'1211.7
2014-Apr-08 13:33N 29°36' W 094°57'5 5.2
2014-Apr-08 12:33N 29°41' W 094°60'0 0.0
2014-Apr-08 11:31N 29°41' W 094°60'0 0.0
2014-Apr-08 10:31N 29°41' W 094°60'0 0.0
2014-Apr-08 09:31N 29°41' W 094°60'0 0.0
2014-Apr-08 08:31N 29°41' W 094°60'0 0.0
2014-Apr-08 07:31N 29°41' W 094°60'0 0.0
2014-Apr-08 06:31N 29°41' W 094°60'0 0.0
2014-Apr-08 05:31N 29°41' W 094°60'0 0.0
2014-Apr-08 04:31N 29°41' W 094°60'0 0.0
2014-Apr-08 03:31N 29°41' W 094°60'0 0.0
2014-Apr-08 02:31N 29°41' W 094°60'0 0.0
2014-Apr-08 01:31N 29°41' W 094°60'0 0.0
2014-Apr-08 00:31N 29°41' W 094°60'0 0.0
2014-Apr-07 23:31N 29°41' W 094°60'0 0.0
2014-Apr-07 22:31N 29°41' W 094°60'0 0.0
2014-Apr-07 21:31N 29°41' W 094°60'0 0.0
2014-Apr-07 20:31N 29°41' W 094°60'0 0.0
2014-Apr-07 19:31N 29°41' W 094°60'0 0.0
2014-Apr-07 17:28N 29°41' W 094°60'0 0.0
2014-Apr-07 16:33N 29°41' W 094°60'3 2.7
2014-Apr-07 15:33N 29°39' W 094°58'1111.2
2014-Apr-07 14:33N 29°29' W 094°52'  
2014-Apr-04 23:16N 19°38' W 096°06'1217.5
2014-Apr-04 22:34N 19°27' W 096°01'1514.6
2014-Apr-04 21:34N 19°12' W 096°02'6 5.7
2014-Apr-04 20:34N 19°13' W 096°08'0 0.0
2014-Apr-04 19:32N 19°13' W 096°08'0 0.0
2014-Apr-04 18:29N 19°13' W 096°08'0 0.0
2014-Apr-04 17:32N 19°13' W 096°08'0 0.0
2014-Apr-04 16:29N 19°13' W 096°08'0 0.0
2014-Apr-04 15:32N 19°13' W 096°08'0 0.0
2014-Apr-04 14:29N 19°13' W 096°08'0 0.0
2014-Apr-04 13:32N 19°13' W 096°08'0 0.0
2014-Apr-04 12:32N 19°13' W 096°08'0 0.0
2014-Apr-04 11:32N 19°13' W 096°08'0 0.0
2014-Apr-04 10:32N 19°13' W 096°08'0 0.0
2014-Apr-04 09:32N 19°13' W 096°08'0 0.0
2014-Apr-04 08:32N 19°13' W 096°08'0 0.0
2014-Apr-04 07:29N 19°13' W 096°08'0 0.0
2014-Apr-04 06:32N 19°13' W 096°08'0 0.0
2014-Apr-04 05:32N 19°13' W 096°08'4 4.4
2014-Apr-04 04:34N 19°11' W 096°04'1110.7
2014-Apr-04 03:33N 19°14' W 095°53'1414.1
2014-Apr-04 02:33N 19°18' W 095°38'1615.9
2014-Apr-04 01:33N 19°27' W 095°24'1716.6
2014-Apr-04 00:33N 19°36' W 095°10'1716.9
2014-Apr-03 23:33N 19°46' W 094°55'58616.5
2014-Apr-02 12:00N 21°06' W 084°36'37120.6 100 / 201015.510.8 1.525.519.727.0
2014-Apr-01 18:00N 17°06' W 079°36'12520.8 050 / 91014.310.8 0.528.022.427.0
2014-Apr-01 12:00N 15°36' W 078°06'12520.9 070 / 181012.010.8 1.527.022.827.0
2014-Apr-01 06:00N 13°42' W 077°12'   060 / 221011.910.8 2.526.321.826.0

Dump ship's entire track history

sailing weather and tide predictions

Maersk Durham — DCDP2 — position and weather